Latest METARs, TAFs and NOTAMs for RJGG


---------------------------------------------------------------------------
	(OBSERVATIONS)
RJGG 250930Z 14007KT CAVOK 27/20 Q1011 NOSIG=
RJGG 250900Z 16009KT CAVOK 27/21 Q1011 NOSIG=
RJGG 250830Z 17010KT CAVOK 28/21 Q1010 NOSIG=
RJGG 250800Z 16009KT CAVOK 29/20 Q1010 NOSIG=
RJGG 250730Z 17010KT CAVOK 29/20 Q1010 NOSIG=
---------------------------------------------------------------------------
	(TERMINAL AREA FORECAST)
RJGG 250505Z 2506/2612 16008KT 9999 FEW030=
---------------------------------------------------------------------------
	(NOTAMS)


RJGG A2022/18 TRIGGER NOTAM-PERM AIRAC AIP AMDT NR11/2018 AND
    AIRAC AIP MINIATURE EDITION AMDT NR490 ESTABLISHMENT OF INSTRUMENT
    FLT PROC,ETC. 18 JUL 15:00 2018 UNTIL 02 AUG 15:00 2018.
    CREATED: 24 MAY 08:36 2018

RJGG A2321/18 REF AIP AMDT NR13/2018 (CHANGE TO READ) (EFFECTIVE:21
    JUN 2018) PAGE RJGG AD2-33 6.TAXIING - LIMITATIONS 6.2 AVAILABLE
    TWY AND SAFETY MEASURES CHANGE TO READ WING SPAN(WS) ABV
    74M AND AT OR BLW 85M (ASTERISK2) AVAILABLE TWY A,A1 THRU
    A10 B(FROM B1 TO E2),B1,B2,B9,B10 C(FROM SPOT NR117 TO NR119),C9,C10
    INSTEAD OF WING SPAN(WS) ABV 74M AND AT OR BLW 85M (ASTERISK2)
    AVAILABLE TWY A,A1 THRU A10 B(FROM B1 TO E2),B1,B2,B9,B10
    C(FROM SPOT NR117 TO NR119),C9,C10 E2. 20 JUN 15:00 2018
    UNTIL PERM. CREATED: 15 JUN 10:35 2018

RJGG A2411/18 RWY 18/36-CLSD DUE TO MAINT RMK/EXC ACFT WITH PRIOR
    PERMISSION AT LEAST 1HR BFR. JUN 25 1720/2015 26 1720/2100
    27 1720/1930 28 1720/2100 30 1600/2015 JUL 01 1600/2100,
    25 JUN 17:20 2018 UNTIL 01 JUL 21:00 2018. CREATED: 20 JUN
    07:46 2018

RJGG A2434/18 TRIGGER NOTAM-PERM AIRAC AIP AMDT NR12/2018 AND
    AIRAC AIP MINIATURE EDITION AMDT NR491 REVISION OF FLT PROC
    AT CHUBU CENTRAIR INTL AP/RJGG. 18 JUL 15:00 2018 UNTIL 02
    AUG 15:00 2018. CREATED: 21 JUN 08:12 2018

RJGG A2435/18 TRIGGER NOTAM-PERM AIRAC AIP AMDT NR13/2018 AND
    AIRAC AIP MINIATURE EDITION AMDT NR491 REVISION OF INSTR
    FLT PROC, ETC AT CHUBU CENTRAIR INTL AP/RJGG. 15 AUG 15:00
    2018 UNTIL 30 AUG 15:00 2018. CREATED: 21 JUN 08:28 2018

RJGG A2436/18 TRIGGER NOTAM-AIRAC AIP SUP 091/18 UNSERVICEABILITY
    AND ALTN PROC OF CHUBU ILS-LOC 36(ICX) TEMPO OPS OF ALTN
    LOC. 15 AUG 15:00 2018 UNTIL 30 JAN 15:00 2019. CREATED:
    21 JUN 08:29 2018

RJGG A2438/18 TWY A A1 THRU A10, B B1 THRU B10, C C7 THRU C10-CLSD
    DUE TO MAINT RMK/EXC ACFT WITH PRIOR PERMISSION. 25 JUN 17:20
    2018 UNTIL 25 JUN 20:15 2018. CREATED: 21 JUN 14:37 2018

RJGG A2439/18 ACFT STAND TXL D D5 THRU D7 N-CLSD DUE TO MAINT
    RMK/EXC ACFT WITH PRIOR PERMISSION. 25 JUN 15:30 2018 UNTIL
    25 JUN 20:15 2018. CREATED: 21 JUN 14:38 2018

RJGG A2440/18 ACFT STAND TXL E E2 THRU E6-CLSD DUE TO MAINT RMK/EXC
    ACFT WITH PRIOR PERMISSION. 25 JUN 16:00 2018 UNTIL 25 JUN
    20:15 2018. CREATED: 21 JUN 14:39 2018

RJGG A2460/18 TWY A A1 THRU A10,B B1 THRU B10,C C7 THRU C10-CLSD
    DUE TO MAINT RMK/EXC ACFT WITH PRIOR PERMISSION. 26 JUN 17:20
    2018 UNTIL 26 JUN 21:00 2018. CREATED: 22 JUN 12:07 2018

RJGG A2461/18 ACFT STAND TXL D D5 THRU D7 N-CLSD DUE TO MAINT
    RMK/EXC ACFT WITH PRIOR PERMISSION. 26 JUN 15:30 2018 UNTIL
    26 JUN 21:00 2018. CREATED: 22 JUN 12:08 2018

RJGG A2462/18 ACFT STAND TXL E E2 THRU E6-CLSD DUE TO MAINT RMK/EXC
    ACFT WITH PRIOR PERMISSION. 26 JUN 16:00 2018 UNTIL 26 JUN
    21:00 2018. CREATED: 22 JUN 12:08 2018

RJGG A2479/18 TWY A A1 THRU A10,B B1 THRU B10,C C7 THRU C10-CLSD
    DUE TO MAINT RMK/EXC ACFT WITH PRIOR PERMISSION. 27 JUN 17:20
    2018 UNTIL 27 JUN 19:30 2018. CREATED: 23 JUN 14:43 2018

RJGG A2480/18 ACFT STAND TXL D D5 THRU D7-CLSD DUE TO MAINT RMK/EXC
    ACFT WITH PRIOR PERMISSION. 27 JUN 15:30 2018 UNTIL 27 JUN
    19:30 2018. CREATED: 23 JUN 14:43 2018

RJGG A2481/18 ACFT STAND TXL E E2 THRU E6 N-CLSD DUE TO MAINT
    RMK/EXC ACFT WITH PRIOR PERMISSION. 27 JUN 16:00 2018 UNTIL
    27 JUN 19:30 2018. CREATED: 23 JUN 14:43 2018

RJGG A2493/18 TWY A A1 THRU A10,B B1 THRU B10,C C7 THRU C10-CLSD
    DUE TO MAINT RMK/EXC ACFT WITH PRIOR PERMISSION. 28 JUN 17:20
    2018 UNTIL 28 JUN 21:00 2018. CREATED: 24 JUN 15:02 2018

RJGG A2494/18 ACFT STAND TXL D D5 D6 D7-CLSD DUE TO MAINT RMK/EXC
    ACFT WITH PRIOR PERMISSION. 28 JUN 15:30 2018 UNTIL 28 JUN
    21:00 2018. CREATED: 24 JUN 15:03 2018

RJGG A2495/18 ACFT STAND TXL E,E2 THRU E6 N-CLSD DUE TO MAINT
    RMK/EXC ACFT WITH PRIOR PERMISSION. 28 JUN 16:00 2018 UNTIL
    28 JUN 21:00 2018. CREATED: 24 JUN 15:03 2018

RJGG V0359/18 [US DOD PROCEDURAL NOTAM] STANDARD INSTRUMENT ARRIVAL
    (STAR) AMENDMENT - STAR RWY 36. ADD PIXIE RADIAL AND DME
    (CBE VOR/DME R-174/11 DME) AND ADD PROBE DME (I-CX LOC/DME
    15.7 DME). 23 MAY 12:54 2018 UNTIL 19 JUL 00:01 2018. CREATED:
    23 MAY 12:54 2018

---------------------------------------------------------------------------